SLLP/LPB METAR and TAF weather

Enter ICAO airport designator
Station Type Date Time Source
SLLP METAR 2022/12/04 12:00 UTC NOAA

SLLP 041200Z 15007KT 8000 FEW006 SCT015 07/02 Q1035


Station Type Date Time Source
SLLP Decoded METAR 2022/12/04 12:00 UTC NOAA

La Paz / Alto, Bolivia (SLLP) 16-31S 068-11W 4038M
Dec 04, 2022 - 07:00 AM EST / 2022.12.04 1200 UTC
Wind: from the SSE (150 degrees) at 8 MPH (7 KT):0
Visibility: 4 mile(s):0
Sky conditions: partly cloudy
Temperature: 44 F (7 C)
Dew Point: 35 F (2 C)
Relative Humidity: 70%
Pressure (altimeter): 30.56 in. Hg (1035 hPa)
ob: SLLP 041200Z 15007KT 8000 FEW006 SCT015 07/02 Q1035
cycle: 12

Station Type Date Time Source
SLLP TAF 2022/12/04 12:55 UTC NOAA

TAF SLLP 041000Z 0412/0512 VRB02KT 9999 FEW010 TX16/0419Z TN01/0510Z
BECMG 0413/0417 13012KT 9999 NSW
BECMG 0500/0502 06007KT
BECMG 0504/ 0506 3000E BCFG

Example: see airport list